Lake Success, New York
Current Conditions -  °F | °C
As of 10:51 PM on Thursday 18 Dec 2014 (Local Time) from KJFK Reporting Station
Scattered Clouds Scattered Clouds  
Wind Chill: 32°   Ceiling: Unl
Heat Index: 39°   Visibility: 10mi
Dew Point: 26°   Wind: 10mph
Humidity: 60%   Direction: 300°WNW
Pressure: 29.98"   Gusts: NA
Location:  40.7459°N, 73.6798°W
Report Text: KJFK 190351Z 30009KT 10SM FEW033 SCT250 04/M03 A2998 RMK AO2 SLP152 T00391033 $
Loading
Personal Weather Stations






























Interactive Weather Map New forecast layout! Learn more

10-Day Weather Forecast

Advertisements
Track Severe Weather on mobile